Main page
METAR-TAF:

METAR-TAF

Airports :

Rovaniemi, Finland

Rovaniemi Airport

latitude: 66-34N, longitude: 025-50E, elevation: 197 m

Current weather observation

The report was made 18 minutes ago, at 23:50 UTC
Wind 4 kt from the West/Northwest
Temperature -13°C
Humidity 92%
Pressure 997 hPa
Visibility 10 km or more
Broken clouds at a height of 3900 ft
Overcast at a height of 4400 ft

METAR: EFRO 262350Z AUTO 29004KT 9999 BKN039 OVC044 M13/M14 Q0997

Time: 02:08 (00:08 UTC)

Forecast

The report was made 31 minutes ago, at 23:37 UTC
Forecast valid from 27 at 00 UTC to 27 at 24 UTC
Wind 5 kt from the West/Northwest
Visibility 10 km or more
Broken clouds at a height of 4000 ft
Temporary
from 27 at 02 UTC to 27 at 13 UTC
Visibility: 2000 m
Broken clouds at a height of 400 ft
light snow

TAF: EFRO 262337Z 2700/2724 30005KT 9999 BKN040 TEMPO 2702/2713 2000 -SN BKN004

Weather observations and forecasts of more than 4000 airports (METAR and TAF reports).

The available stations are represented by yellow and red dots on the map.

Hover mouse over dot to see the name of the station.

Then click to see weather observations and forecasts.

To change the map : click on the green buttons with a black cross to zoom in, on the green button with a dash to zoom out, or on the green arrows for adjacent maps.


METAR-TAF: